createdAt,value
2022-07-31T00:00:13.683Z,13.91
2022-07-31T00:02:40.283Z,13.90
2022-07-31T00:05:07.789Z,13.88
2022-07-31T00:07:34.516Z,13.90
2022-07-31T00:10:01.206Z,13.94
2022-07-31T00:12:27.915Z,14.00
2022-07-31T00:14:54.577Z,14.05
2022-07-31T00:17:21.459Z,14.07
2022-07-31T00:19:48.188Z,14.09
2022-07-31T00:22:14.912Z,14.12
2022-07-31T00:24:41.631Z,14.12
2022-07-31T00:27:11.448Z,14.08
2022-07-31T00:29:38.710Z,14.07
2022-07-31T00:32:06.301Z,14.05
2022-07-31T00:34:33.045Z,14.08
2022-07-31T00:36:59.854Z,14.07
2022-07-31T00:39:26.734Z,14.06
2022-07-31T00:41:55.022Z,14.04
2022-07-31T00:44:21.789Z,14.03
2022-07-31T00:46:49.662Z,14.03
2022-07-31T00:49:17.283Z,13.96
2022-07-31T00:51:43.964Z,13.94
2022-07-31T00:54:22.842Z,13.85
2022-07-31T00:56:50.179Z,13.79
2022-07-31T00:59:17.833Z,13.77
2022-07-31T01:01:51.299Z,13.78
2022-07-31T01:04:19.681Z,13.74
2022-07-31T01:06:47.158Z,13.72
2022-07-31T01:09:17.124Z,13.71
2022-07-31T01:11:58.868Z,13.69
2022-07-31T01:14:29.984Z,13.66
2022-07-31T01:17:00.279Z,13.61
2022-07-31T01:19:43.736Z,13.58
2022-07-31T01:22:34.917Z,13.53
2022-07-31T01:25:13.624Z,13.52
2022-07-31T01:28:10.562Z,13.55
2022-07-31T01:30:56.097Z,13.59
2022-07-31T01:33:32.848Z,13.66
2022-07-31T01:36:10.875Z,13.66
2022-07-31T01:38:45.735Z,13.64
2022-07-31T01:41:15.276Z,13.57
2022-07-31T01:43:44.450Z,13.46
2022-07-31T01:46:15.409Z,13.41
2022-07-31T01:48:44.357Z,13.31
2022-07-31T01:51:12.385Z,13.29
2022-07-31T01:53:40.893Z,13.23
2022-07-31T01:56:09.013Z,13.17
2022-07-31T01:58:39.399Z,13.14
2022-07-31T02:01:11.278Z,13.11
2022-07-31T02:03:43.599Z,12.93
2022-07-31T02:06:13.925Z,12.76
2022-07-31T02:08:42.188Z,12.68
2022-07-31T02:11:08.958Z,12.55
2022-07-31T02:13:37.471Z,12.42
2022-07-31T02:16:05.752Z,12.35
2022-07-31T02:18:34.184Z,12.28
2022-07-31T02:21:00.931Z,12.21
2022-07-31T02:23:27.624Z,12.18
2022-07-31T02:25:55.011Z,12.10
2022-07-31T02:28:24.356Z,12.02
2022-07-31T02:30:51.923Z,11.90
2022-07-31T02:33:21.851Z,11.82
2022-07-31T02:35:51.012Z,11.77
2022-07-31T02:38:23.278Z,11.71
2022-07-31T02:40:58.011Z,11.62
2022-07-31T02:43:27.548Z,11.59
2022-07-31T02:45:56.640Z,11.54
2022-07-31T02:48:25.329Z,11.51
2022-07-31T02:50:52.451Z,11.42
2022-07-31T02:53:20.343Z,11.29
2022-07-31T02:55:47.236Z,11.28
2022-07-31T02:58:14.529Z,11.28
2022-07-31T03:00:41.356Z,11.26
2022-07-31T03:03:08.265Z,11.32
2022-07-31T03:05:34.938Z,11.32
2022-07-31T03:08:01.612Z,11.28
2022-07-31T03:10:28.432Z,11.25
2022-07-31T03:12:56.141Z,11.19
2022-07-31T03:15:26.003Z,11.10
2022-07-31T03:17:53.905Z,10.97
2022-07-31T03:20:22.396Z,10.99
2022-07-31T03:22:49.793Z,11.06
2022-07-31T03:25:20.140Z,11.15
2022-07-31T03:27:56.380Z,11.17
2022-07-31T03:30:27.412Z,11.15
2022-07-31T03:32:56.378Z,11.20
2022-07-31T03:35:27.132Z,11.25
2022-07-31T03:37:56.055Z,11.28
2022-07-31T03:40:22.675Z,11.29
2022-07-31T03:42:52.337Z,11.37
2022-07-31T03:45:20.764Z,11.47
2022-07-31T03:47:49.989Z,11.56
2022-07-31T03:50:19.541Z,11.64
2022-07-31T03:52:49.565Z,11.71
2022-07-31T03:55:16.445Z,11.80
2022-07-31T03:57:44.761Z,11.89
2022-07-31T04:00:16.902Z,11.97
2022-07-31T04:02:45.512Z,12.06
2022-07-31T04:05:12.327Z,12.15
2022-07-31T04:07:39.079Z,12.27
2022-07-31T04:10:06.515Z,12.42
2022-07-31T04:12:33.393Z,12.52
2022-07-31T04:15:00.107Z,12.61
2022-07-31T04:17:26.706Z,12.68
2022-07-31T04:19:57.556Z,12.74
2022-07-31T04:22:24.176Z,12.83
2022-07-31T04:24:50.968Z,12.92
2022-07-31T04:27:18.636Z,13.04
2022-07-31T04:29:46.127Z,13.11
2022-07-31T04:32:12.823Z,13.18
2022-07-31T04:34:40.118Z,13.23
2022-07-31T04:37:06.735Z,13.35
2022-07-31T04:39:33.971Z,13.42
2022-07-31T04:42:00.914Z,13.55
2022-07-31T04:44:27.851Z,13.60
2022-07-31T04:47:00.258Z,13.67
2022-07-31T04:49:28.203Z,13.75
2022-07-31T04:51:54.904Z,13.87
2022-07-31T04:54:21.535Z,13.95
2022-07-31T04:56:50.988Z,14.00
2022-07-31T04:59:22.812Z,14.07
2022-07-31T05:01:50.350Z,14.12
2022-07-31T05:04:18.305Z,14.13
2022-07-31T05:06:47.352Z,14.15
2022-07-31T05:09:19.038Z,14.17
2022-07-31T05:11:47.470Z,14.25
2022-07-31T05:14:16.801Z,14.32
2022-07-31T05:16:43.948Z,14.36
2022-07-31T05:19:14.695Z,14.44
2022-07-31T05:21:46.993Z,14.50
2022-07-31T05:24:32.417Z,14.58
2022-07-31T05:27:02.175Z,14.65
2022-07-31T05:29:28.985Z,14.69
2022-07-31T05:31:59.871Z,14.77
2022-07-31T05:34:31.786Z,14.83
2022-07-31T05:37:01.553Z,14.94
2022-07-31T05:39:28.983Z,15.05
2022-07-31T05:41:55.594Z,15.23
2022-07-31T05:44:22.416Z,15.27
2022-07-31T05:49:16.377Z,15.47
2022-07-31T05:51:44.742Z,15.52
2022-07-31T05:54:11.482Z,15.64
2022-07-31T05:56:38.212Z,15.65
2022-07-31T05:59:04.849Z,15.73
2022-07-31T06:01:31.552Z,15.73
2022-07-31T06:03:58.245Z,15.79
2022-07-31T06:06:24.928Z,15.89
2022-07-31T06:08:51.597Z,15.98
2022-07-31T06:11:18.301Z,16.10
2022-07-31T06:13:44.957Z,16.18
2022-07-31T06:16:13.773Z,16.25
2022-07-31T06:18:40.777Z,16.35
2022-07-31T06:21:07.453Z,16.43
2022-07-31T06:23:34.202Z,16.54
2022-07-31T06:26:00.957Z,16.65
2022-07-31T06:28:35.354Z,16.73
2022-07-31T06:31:21.544Z,16.78
2022-07-31T06:33:51.039Z,16.90
2022-07-31T06:36:19.413Z,17.01
2022-07-31T06:38:46.125Z,17.16
2022-07-31T06:41:32.968Z,17.23
2022-07-31T06:43:59.888Z,17.31
2022-07-31T06:46:28.843Z,17.42
2022-07-31T06:48:56.181Z,17.48
2022-07-31T06:51:32.972Z,17.53
2022-07-31T06:54:00.741Z,17.66
2022-07-31T06:56:31.043Z,17.68
2022-07-31T06:58:57.956Z,17.71
2022-07-31T07:01:24.714Z,17.76
2022-07-31T07:03:51.521Z,17.82
2022-07-31T07:06:18.432Z,17.96
2022-07-31T07:08:45.128Z,18.04
2022-07-31T07:11:12.510Z,18.05
2022-07-31T07:13:45.325Z,18.08
2022-07-31T07:16:14.193Z,18.18
2022-07-31T07:18:40.875Z,18.30
2022-07-31T07:21:07.644Z,18.40
2022-07-31T07:23:38.053Z,18.50
2022-07-31T07:26:04.973Z,18.55
2022-07-31T07:28:34.078Z,18.60
2022-07-31T07:31:01.076Z,18.67
2022-07-31T07:33:41.418Z,18.80
2022-07-31T07:36:24.041Z,18.85
2022-07-31T07:38:54.890Z,18.91
2022-07-31T07:41:22.397Z,19.03
2022-07-31T07:43:51.583Z,19.11
2022-07-31T07:46:19.294Z,19.24
2022-07-31T07:48:46.879Z,19.31
2022-07-31T07:51:14.357Z,19.39
2022-07-31T07:53:41.001Z,19.50
2022-07-31T07:56:09.865Z,19.60
2022-07-31T07:58:38.597Z,19.66
2022-07-31T08:01:06.209Z,19.78
2022-07-31T08:03:48.650Z,19.88
2022-07-31T08:06:19.418Z,19.99
2022-07-31T08:08:46.059Z,20.10
2022-07-31T08:11:17.415Z,20.17
2022-07-31T08:13:50.113Z,20.21
2022-07-31T08:16:19.194Z,20.23
2022-07-31T08:18:46.101Z,20.30
2022-07-31T08:21:14.917Z,20.40
2022-07-31T08:23:42.243Z,20.47
2022-07-31T08:26:09.204Z,20.51
2022-07-31T08:28:36.955Z,20.56
2022-07-31T08:31:03.933Z,20.60
2022-07-31T08:33:33.065Z,20.68
2022-07-31T08:35:59.896Z,20.83
2022-07-31T08:38:26.705Z,21.01
2022-07-31T08:40:53.396Z,21.12
2022-07-31T08:44:00.544Z,21.12
2022-07-31T08:46:08.007Z,21.03
2022-07-31T08:48:41.090Z,20.99
2022-07-31T08:51:12.461Z,21.04
2022-07-31T08:53:40.577Z,21.10
2022-07-31T08:56:08.954Z,21.19
2022-07-31T08:58:39.234Z,21.28
2022-07-31T09:01:08.366Z,21.33
2022-07-31T09:03:36.202Z,21.38
2022-07-31T09:06:03.920Z,21.44
2022-07-31T09:08:37.466Z,21.44
2022-07-31T09:11:06.476Z,21.52
2022-07-31T09:13:34.936Z,21.54
2022-07-31T09:16:02.772Z,21.52
2022-07-31T09:18:30.248Z,21.62
2022-07-31T09:21:00.133Z,21.75
2022-07-31T09:23:29.644Z,21.80
2022-07-31T09:25:59.856Z,21.75
2022-07-31T09:28:39.273Z,21.65
2022-07-31T09:31:08.148Z,21.51
2022-07-31T09:33:42.369Z,21.52
2022-07-31T09:36:13.201Z,21.45
2022-07-31T09:38:42.625Z,21.37
2022-07-31T09:41:20.457Z,21.41
2022-07-31T09:44:10.578Z,21.59
2022-07-31T09:46:41.761Z,21.71
2022-07-31T09:49:09.294Z,21.82
2022-07-31T09:51:47.037Z,21.84
2022-07-31T09:54:25.325Z,21.83
2022-07-31T09:56:54.359Z,21.94
2022-07-31T09:59:21.091Z,22.08
2022-07-31T10:01:51.439Z,22.23
2022-07-31T10:04:19.676Z,22.18
2022-07-31T10:06:51.939Z,22.19
2022-07-31T10:09:20.413Z,22.30
2022-07-31T10:11:49.900Z,22.32
2022-07-31T10:14:27.038Z,22.26
2022-07-31T10:16:57.175Z,22.31
2022-07-31T10:19:27.458Z,22.31
2022-07-31T10:21:59.864Z,22.22
2022-07-31T10:24:31.779Z,22.14
2022-07-31T10:27:01.303Z,22.20
2022-07-31T10:29:33.586Z,22.12
2022-07-31T10:32:01.237Z,22.02
2022-07-31T10:34:30.704Z,21.90
2022-07-31T10:37:06.647Z,21.69
2022-07-31T10:39:49.532Z,21.43
2022-07-31T10:42:56.613Z,21.23
2022-07-31T10:45:23.870Z,21.42
2022-07-31T10:48:01.737Z,21.48
2022-07-31T10:50:32.152Z,21.69
2022-07-31T10:53:09.679Z,21.78
2022-07-31T10:55:36.738Z,21.91
2022-07-31T10:58:18.141Z,21.89
2022-07-31T11:00:47.549Z,22.01
2022-07-31T11:03:18.273Z,22.10
2022-07-31T11:06:02.405Z,22.18
2022-07-31T11:08:40.282Z,22.12
2022-07-31T11:11:06.932Z,22.19
2022-07-31T11:13:44.585Z,22.36
2022-07-31T11:16:11.204Z,22.55
2022-07-31T11:18:38.051Z,22.64
2022-07-31T11:21:22.787Z,22.64
2022-07-31T11:23:56.399Z,22.60
2022-07-31T11:26:33.509Z,22.32
2022-07-31T11:30:00.008Z,22.19
2022-07-31T11:32:06.309Z,22.32
2022-07-31T11:34:47.173Z,22.42
2022-07-31T11:37:20.573Z,22.42
2022-07-31T11:39:51.323Z,22.36
2022-07-31T11:42:19.376Z,22.23
2022-07-31T11:44:51.812Z,22.29
2022-07-31T11:48:09.790Z,22.49
2022-07-31T11:50:07.976Z,22.66
2022-07-31T11:52:36.993Z,22.60
2022-07-31T11:55:09.842Z,22.52
2022-07-31T11:57:50.388Z,22.60
2022-07-31T12:00:26.277Z,22.58
2022-07-31T12:02:57.047Z,22.67
2022-07-31T12:05:36.179Z,22.72
2022-07-31T12:08:06.800Z,22.83
2022-07-31T12:10:34.043Z,22.84
2022-07-31T12:13:01.924Z,22.90
2022-07-31T12:15:28.609Z,23.05
2022-07-31T12:18:03.034Z,23.00
2022-07-31T12:20:35.879Z,23.04
2022-07-31T12:23:04.855Z,23.11
2022-07-31T12:25:42.061Z,23.04
2022-07-31T12:28:11.427Z,23.02
2022-07-31T12:30:38.806Z,23.02
2022-07-31T12:33:07.660Z,22.95
2022-07-31T12:35:55.787Z,22.98
2022-07-31T12:38:40.955Z,22.87
2022-07-31T12:41:09.595Z,23.02
2022-07-31T12:43:37.671Z,23.07
2022-07-31T12:46:07.065Z,23.20
2022-07-31T12:48:39.262Z,23.28
2022-07-31T12:51:06.857Z,23.21
2022-07-31T12:53:33.496Z,23.11
2022-07-31T12:56:00.091Z,23.01
2022-07-31T12:58:26.692Z,23.11
2022-07-31T13:00:56.899Z,23.34
2022-07-31T13:03:23.508Z,23.38
2022-07-31T13:05:52.187Z,23.34
2022-07-31T13:08:18.962Z,23.27
2022-07-31T13:10:46.264Z,23.30
2022-07-31T13:13:12.868Z,23.35
2022-07-31T13:15:39.610Z,23.38
2022-07-31T13:18:06.338Z,23.43
2022-07-31T13:20:32.977Z,23.43
2022-07-31T13:22:59.783Z,23.40
2022-07-31T13:25:28.744Z,23.41
2022-07-31T13:27:55.431Z,23.31
2022-07-31T13:30:22.073Z,23.30
2022-07-31T13:32:48.717Z,23.39
2022-07-31T13:35:24.362Z,23.46
2022-07-31T13:37:54.236Z,23.51
2022-07-31T13:40:40.959Z,23.63
2022-07-31T13:43:07.675Z,23.55
2022-07-31T13:45:34.333Z,23.36
2022-07-31T13:48:04.425Z,23.52
2022-07-31T13:50:33.830Z,23.55
2022-07-31T13:53:00.574Z,23.60
2022-07-31T13:55:27.264Z,23.89
2022-07-31T13:57:53.879Z,24.00
2022-07-31T14:00:28.663Z,23.89
2022-07-31T14:02:55.284Z,23.89
2022-07-31T14:05:26.690Z,24.00
2022-07-31T14:07:54.971Z,24.00
2022-07-31T14:10:22.245Z,23.83
2022-07-31T14:12:50.040Z,23.80
2022-07-31T14:15:18.280Z,23.95
2022-07-31T14:17:45.348Z,24.18
2022-07-31T14:20:12.652Z,24.16
2022-07-31T14:22:39.388Z,24.24
2022-07-31T14:25:06.184Z,24.29
2022-07-31T14:27:34.435Z,24.34
2022-07-31T14:30:04.086Z,24.40
2022-07-31T14:32:32.772Z,24.57
2022-07-31T14:35:00.771Z,24.68
2022-07-31T14:37:30.161Z,24.88
2022-07-31T14:39:56.904Z,25.11
2022-07-31T14:42:25.551Z,25.15
2022-07-31T14:44:53.602Z,25.22
2022-07-31T14:47:20.281Z,25.35
2022-07-31T14:50:09.947Z,25.36
2022-07-31T14:52:33.851Z,25.28
2022-07-31T14:55:00.761Z,25.47
2022-07-31T14:57:31.641Z,25.38
2022-07-31T14:59:58.551Z,25.03
2022-07-31T15:02:25.223Z,24.82
2022-07-31T15:04:54.576Z,24.54
2022-07-31T15:07:41.148Z,24.33
2022-07-31T15:10:10.616Z,24.06
2022-07-31T15:12:37.245Z,23.78
2022-07-31T15:15:04.460Z,24.02
2022-07-31T15:17:31.189Z,24.45
2022-07-31T15:19:57.855Z,24.58
2022-07-31T15:22:24.499Z,24.39
2022-07-31T15:24:51.180Z,24.45
2022-07-31T15:27:19.151Z,24.77
2022-07-31T15:30:03.553Z,24.98
2022-07-31T15:32:32.485Z,25.03
2022-07-31T15:34:59.100Z,24.85
2022-07-31T15:37:25.716Z,24.90
2022-07-31T15:40:01.393Z,24.92
2022-07-31T15:42:31.553Z,25.04
2022-07-31T15:44:58.421Z,25.13
2022-07-31T15:47:27.264Z,24.84
2022-07-31T15:49:53.911Z,24.40
2022-07-31T15:52:20.562Z,24.18
2022-07-31T15:54:51.688Z,23.99
2022-07-31T15:57:24.268Z,23.72
2022-07-31T15:59:56.448Z,23.71
2022-07-31T16:02:24.121Z,23.67
2022-07-31T16:04:54.294Z,23.60
2022-07-31T16:08:32.840Z,23.52
2022-07-31T16:10:16.518Z,23.40
2022-07-31T16:12:45.876Z,23.30
2022-07-31T16:15:13.183Z,23.29
2022-07-31T16:17:40.523Z,23.18
2022-07-31T16:20:08.930Z,23.05
2022-07-31T16:22:37.201Z,23.13
2022-07-31T16:25:05.192Z,23.04
2022-07-31T16:27:31.867Z,23.03
2022-07-31T16:30:01.428Z,22.98
2022-07-31T16:32:28.978Z,22.94
2022-07-31T16:35:00.240Z,22.85
2022-07-31T16:37:51.558Z,22.83
2022-07-31T16:40:30.599Z,22.83
2022-07-31T16:43:48.025Z,22.79
2022-07-31T16:45:50.980Z,22.73
2022-07-31T16:48:19.185Z,22.70
2022-07-31T16:50:48.476Z,22.65
2022-07-31T16:54:10.014Z,22.63
2022-07-31T16:56:13.515Z,22.59
2022-07-31T16:58:40.906Z,22.52
2022-07-31T17:01:54.114Z,22.50
2022-07-31T17:04:02.685Z,22.46
2022-07-31T17:06:37.302Z,22.45
2022-07-31T17:09:17.405Z,22.36
2022-07-31T17:11:50.071Z,22.15
2022-07-31T17:14:18.291Z,21.95
2022-07-31T17:16:48.028Z,21.73
2022-07-31T17:19:42.333Z,21.56
2022-07-31T17:22:07.471Z,21.36
2022-07-31T17:24:36.706Z,21.33
2022-07-31T17:27:05.580Z,21.28
2022-07-31T17:29:32.506Z,21.20
2022-07-31T17:31:59.147Z,21.16
2022-07-31T17:34:25.920Z,21.12
2022-07-31T17:36:54.737Z,21.03
2022-07-31T17:39:26.209Z,20.98
2022-07-31T17:41:56.961Z,20.89
2022-07-31T17:44:23.611Z,20.84
2022-07-31T17:46:51.576Z,20.77
2022-07-31T17:49:20.482Z,20.75
2022-07-31T17:51:58.961Z,20.72
2022-07-31T17:54:26.176Z,20.76
2022-07-31T17:56:54.241Z,20.77
2022-07-31T17:59:20.924Z,20.78
2022-07-31T18:01:51.768Z,20.79
2022-07-31T18:04:20.336Z,20.77
2022-07-31T18:06:49.398Z,20.82
2022-07-31T18:09:23.320Z,20.81
2022-07-31T18:11:51.104Z,20.84
2022-07-31T18:14:18.433Z,20.85
2022-07-31T18:16:46.108Z,20.85
2022-07-31T18:19:13.752Z,20.84
2022-07-31T18:21:40.839Z,20.82
2022-07-31T18:24:07.988Z,20.73
2022-07-31T18:26:37.936Z,20.64
2022-07-31T18:29:05.482Z,20.60
2022-07-31T18:31:35.910Z,20.57
2022-07-31T18:34:07.039Z,20.58
2022-07-31T18:36:35.036Z,20.60
2022-07-31T18:39:02.988Z,20.56
2022-07-31T18:41:29.998Z,20.18
2022-07-31T18:43:57.916Z,19.86
2022-07-31T18:46:24.889Z,19.88
2022-07-31T18:48:56.641Z,19.48
2022-07-31T18:51:28.030Z,19.58
2022-07-31T18:53:55.388Z,19.42
2022-07-31T18:56:24.039Z,19.30
2022-07-31T18:58:51.732Z,19.29
2022-07-31T19:01:18.454Z,19.06
2022-07-31T19:03:45.249Z,19.17
2022-07-31T19:06:12.015Z,19.28
2022-07-31T19:08:38.673Z,19.33
2022-07-31T19:11:05.379Z,19.42
2022-07-31T19:13:32.655Z,19.43
2022-07-31T19:15:59.541Z,19.52
2022-07-31T19:18:27.937Z,19.51
2022-07-31T19:21:19.090Z,19.50
2022-07-31T19:23:43.512Z,19.41
2022-07-31T19:26:10.807Z,19.45
2022-07-31T19:28:39.575Z,19.45
2022-07-31T19:31:06.514Z,19.42
2022-07-31T19:33:33.177Z,19.45
2022-07-31T19:36:02.831Z,19.42
2022-07-31T19:38:31.792Z,19.36
2022-07-31T19:40:58.681Z,19.35
2022-07-31T19:43:25.451Z,19.39
2022-07-31T19:46:06.889Z,19.31
2022-07-31T19:48:40.534Z,19.20
2022-07-31T19:51:08.165Z,19.08
2022-07-31T19:53:35.339Z,19.00
2022-07-31T19:56:05.733Z,18.93
2022-07-31T19:58:34.781Z,18.88
2022-07-31T20:01:02.211Z,18.82
2022-07-31T20:03:29.647Z,18.69
2022-07-31T20:05:56.847Z,18.61
2022-07-31T20:08:23.683Z,18.56
2022-07-31T20:10:50.603Z,18.54
2022-07-31T20:13:18.542Z,18.48
2022-07-31T20:15:51.216Z,18.50
2022-07-31T20:18:38.131Z,18.53
2022-07-31T20:21:08.068Z,18.44
2022-07-31T20:23:39.123Z,18.36
2022-07-31T20:26:07.366Z,18.32
2022-07-31T20:28:34.414Z,18.29
2022-07-31T20:31:01.682Z,18.23
2022-07-31T20:33:28.516Z,18.13
2022-07-31T20:35:55.232Z,18.06
2022-07-31T20:38:23.453Z,17.89
2022-07-31T20:40:53.823Z,17.94
2022-07-31T20:43:26.789Z,17.93
2022-07-31T20:45:54.554Z,17.93
2022-07-31T20:48:24.478Z,17.94
2022-07-31T20:50:52.063Z,17.92
2022-07-31T20:53:19.554Z,17.86
2022-07-31T20:55:50.563Z,17.78
2022-07-31T20:58:19.089Z,17.83
2022-07-31T21:00:47.402Z,17.80
2022-07-31T21:03:15.305Z,17.71
2022-07-31T21:05:41.977Z,17.66
2022-07-31T21:08:09.032Z,17.62
2022-07-31T21:10:36.124Z,17.61
2022-07-31T21:13:03.261Z,17.63
2022-07-31T21:15:42.579Z,17.61
2022-07-31T21:18:18.521Z,17.48
2022-07-31T21:20:51.198Z,17.44
2022-07-31T21:23:22.032Z,17.40
2022-07-31T21:25:49.000Z,17.36
2022-07-31T21:28:16.115Z,17.33
2022-07-31T21:30:42.988Z,17.29
2022-07-31T21:33:10.449Z,17.24
2022-07-31T21:35:39.244Z,17.18
2022-07-31T21:38:10.278Z,17.10
2022-07-31T21:40:38.961Z,17.08
2022-07-31T21:43:05.973Z,17.11
2022-07-31T21:45:49.692Z,17.11
2022-07-31T21:48:22.507Z,17.10
2022-07-31T21:50:50.320Z,17.02
2022-07-31T21:53:17.012Z,16.97
2022-07-31T21:55:43.746Z,17.01
2022-07-31T21:58:10.492Z,17.00
2022-07-31T22:00:37.392Z,17.04
2022-07-31T22:03:05.027Z,17.08
2022-07-31T22:05:50.867Z,17.11
2022-07-31T22:08:17.992Z,17.02
2022-07-31T22:10:44.796Z,17.00
2022-07-31T22:13:11.579Z,16.97
2022-07-31T22:15:58.263Z,16.94
2022-07-31T22:18:27.484Z,16.92
2022-07-31T22:20:54.595Z,16.78
2022-07-31T22:23:22.899Z,16.74
2022-07-31T22:25:49.901Z,16.69
2022-07-31T22:28:19.804Z,16.61
2022-07-31T22:30:47.075Z,16.54
2022-07-31T22:33:14.623Z,16.48
2022-07-31T22:35:41.404Z,16.42
2022-07-31T22:38:09.121Z,16.38
2022-07-31T22:40:36.058Z,16.31
2022-07-31T22:43:03.356Z,16.27
2022-07-31T22:45:32.396Z,16.20
2022-07-31T22:48:00.583Z,16.12
2022-07-31T22:50:30.049Z,16.10
2022-07-31T22:52:56.737Z,16.09
2022-07-31T22:55:23.347Z,16.05
2022-07-31T22:57:52.071Z,16.03
2022-07-31T23:00:21.192Z,15.99
2022-07-31T23:02:48.246Z,16.03
2022-07-31T23:05:15.012Z,16.05
2022-07-31T23:07:41.619Z,16.07
2022-07-31T23:10:11.197Z,16.10
2022-07-31T23:12:37.972Z,16.10
2022-07-31T23:15:05.539Z,16.07
2022-07-31T23:17:32.209Z,16.09
2022-07-31T23:19:59.024Z,16.11
2022-07-31T23:22:34.002Z,16.05
2022-07-31T23:25:08.796Z,15.96
2022-07-31T23:27:35.471Z,15.96
2022-07-31T23:30:02.538Z,16.01
2022-07-31T23:32:29.420Z,16.00
2022-07-31T23:34:58.692Z,16.04
2022-07-31T23:37:25.286Z,16.02
2022-07-31T23:39:53.797Z,16.02
2022-07-31T23:42:41.114Z,15.97
2022-07-31T23:45:11.311Z,15.93
2022-07-31T23:47:45.444Z,15.95
2022-07-31T23:50:14.283Z,15.82
2022-07-31T23:52:41.407Z,15.84
2022-07-31T23:55:08.667Z,15.87
2022-07-31T23:57:36.244Z,15.87
